sensor_id;sensor_type;location;lat;lon;timestamp;temperature;humidity
23305;DHT22;11821;51.456;8.844;2023-04-25T09:39:23;12.00;99.90
23305;DHT22;11821;51.456;8.844;2023-04-25T09:42:03;12.50;99.90
23305;DHT22;11821;51.456;8.844;2023-04-25T09:44:30;12.40;99.90
23305;DHT22;11821;51.456;8.844;2023-04-25T09:46:57;12.00;99.90
23305;DHT22;11821;51.456;8.844;2023-04-25T09:49:27;12.00;99.90
23305;DHT22;11821;51.456;8.844;2023-04-25T10:04:59;12.10;99.90
23305;DHT22;11821;51.456;8.844;2023-04-25T10:27:20;12.10;99.90
23305;DHT22;11821;51.456;8.844;2023-04-25T11:27:02;12.90;99.90
23305;DHT22;11821;51.456;8.844;2023-04-25T11:46:47;13.80;99.90
23305;DHT22;11821;51.456;8.844;2023-04-25T11:49:14;13.40;99.90
23305;DHT22;11821;51.456;8.844;2023-04-25T11:54:07;13.30;99.90
23305;DHT22;11821;51.456;8.844;2023-04-25T11:56:33;13.30;99.90
23305;DHT22;11821;51.456;8.844;2023-04-25T11:59:02;13.30;99.90
23305;DHT22;11821;51.456;8.844;2023-04-25T12:01:30;13.00;99.90
23305;DHT22;11821;51.456;8.844;2023-04-25T12:03:57;13.00;99.90
23305;DHT22;11821;51.456;8.844;2023-04-25T12:14:06;12.90;99.90
23305;DHT22;11821;51.456;8.844;2023-04-25T12:19:08;13.10;99.90
23305;DHT22;11821;51.456;8.844;2023-04-25T12:21:36;12.70;99.90
23305;DHT22;11821;51.456;8.844;2023-04-25T12:29:22;12.80;99.90
23305;DHT22;11821;51.456;8.844;2023-04-25T12:31:51;13.50;99.90
23305;DHT22;11821;51.456;8.844;2023-04-25T12:36:45;13.90;99.90
23305;DHT22;11821;51.456;8.844;2023-04-25T12:41:46;14.20;99.90
23305;DHT22;11821;51.456;8.844;2023-04-25T12:44:12;14.30;98.50
23305;DHT22;11821;51.456;8.844;2023-04-25T12:49:07;14.20;98.90
23305;DHT22;11821;51.456;8.844;2023-04-25T12:51:35;14.40;99.50
23305;DHT22;11821;51.456;8.844;2023-04-25T12:54:02;14.20;98.90
23305;DHT22;11821;51.456;8.844;2023-04-25T13:03:50;14.20;99.30
23305;DHT22;11821;51.456;8.844;2023-04-25T13:06:18;14.10;97.70
23305;DHT22;11821;51.456;8.844;2023-04-25T13:08:45;13.60;98.70
23305;DHT22;11821;51.456;8.844;2023-04-25T13:11:11;13.20;98.80
23305;DHT22;11821;51.456;8.844;2023-04-25T13:13:38;13.40;99.50
23305;DHT22;11821;51.456;8.844;2023-04-25T13:16:06;13.50;98.00
23305;DHT22;11821;51.456;8.844;2023-04-25T13:18:33;13.50;98.40
23305;DHT22;11821;51.456;8.844;2023-04-25T13:21:00;13.70;98.20
23305;DHT22;11821;51.456;8.844;2023-04-25T13:23:27;13.50;98.90
23305;DHT22;11821;51.456;8.844;2023-04-25T13:25:54;13.40;98.70
23305;DHT22;11821;51.456;8.844;2023-04-25T13:28:21;13.30;99.10
23305;DHT22;11821;51.456;8.844;2023-04-25T13:30:47;13.10;98.30
23305;DHT22;11821;51.456;8.844;2023-04-25T13:33:14;13.20;99.50
23305;DHT22;11821;51.456;8.844;2023-04-25T13:35:42;13.00;98.50
23305;DHT22;11821;51.456;8.844;2023-04-25T13:38:08;13.10;99.90
23305;DHT22;11821;51.456;8.844;2023-04-25T13:40:35;13.40;99.90
23305;DHT22;11821;51.456;8.844;2023-04-25T13:43:01;13.30;99.10
23305;DHT22;11821;51.456;8.844;2023-04-25T13:45:28;13.30;99.90
23305;DHT22;11821;51.456;8.844;2023-04-25T13:47:54;13.10;99.50
23305;DHT22;11821;51.456;8.844;2023-04-25T13:50:21;13.20;99.90
23305;DHT22;11821;51.456;8.844;2023-04-25T13:52:47;13.00;99.90
23305;DHT22;11821;51.456;8.844;2023-04-25T13:55:13;13.00;99.90
23305;DHT22;11821;51.456;8.844;2023-04-25T13:57:39;13.00;99.90
23305;DHT22;11821;51.456;8.844;2023-04-25T14:00:06;13.10;99.90
23305;DHT22;11821;51.456;8.844;2023-04-25T14:02:35;13.10;99.90
23305;DHT22;11821;51.456;8.844;2023-04-25T14:05:02;13.00;99.00
23305;DHT22;11821;51.456;8.844;2023-04-25T14:07:29;13.00;99.60
23305;DHT22;11821;51.456;8.844;2023-04-25T14:09:56;12.80;99.90
23305;DHT22;11821;51.456;8.844;2023-04-25T14:12:23;12.90;99.90
23305;DHT22;11821;51.456;8.844;2023-04-25T14:14:50;12.70;99.90
23305;DHT22;11821;51.456;8.844;2023-04-25T14:17:16;12.70;99.90
23305;DHT22;11821;51.456;8.844;2023-04-25T14:19:42;12.10;99.90
23305;DHT22;11821;51.456;8.844;2023-04-25T14:22:11;11.60;99.90
23305;DHT22;11821;51.456;8.844;2023-04-25T14:24:37;11.50;99.90
23305;DHT22;11821;51.456;8.844;2023-04-25T14:27:04;11.40;99.90
23305;DHT22;11821;51.456;8.844;2023-04-25T14:29:31;11.30;99.90
23305;DHT22;11821;51.456;8.844;2023-04-25T14:31:57;11.20;99.90
23305;DHT22;11821;51.456;8.844;2023-04-25T14:34:25;11.30;99.90
23305;DHT22;11821;51.456;8.844;2023-04-25T14:36:52;11.40;99.90
23305;DHT22;11821;51.456;8.844;2023-04-25T14:39:18;11.40;99.90
23305;DHT22;11821;51.456;8.844;2023-04-25T14:41:45;11.40;99.90
23305;DHT22;11821;51.456;8.844;2023-04-25T14:44:11;11.40;99.90
23305;DHT22;11821;51.456;8.844;2023-04-25T15:30:44;11.60;99.90
23305;DHT22;11821;51.456;8.844;2023-04-25T15:33:11;13.10;99.90
23305;DHT22;11821;51.456;8.844;2023-04-25T15:35:37;12.90;99.90
23305;DHT22;11821;51.456;8.844;2023-04-25T15:40:30;13.00;99.90
23305;DHT22;11821;51.456;8.844;2023-04-25T15:42:57;12.70;99.90
23305;DHT22;11821;51.456;8.844;2023-04-25T15:55:13;12.90;99.90
23305;DHT22;11821;51.456;8.844;2023-04-25T16:00:07;12.80;99.90
23305;DHT22;11821;51.456;8.844;2023-04-25T16:05:05;12.60;99.90
23305;DHT22;11821;51.456;8.844;2023-04-25T16:07:31;12.40;99.90
23305;DHT22;11821;51.456;8.844;2023-04-25T16:09:58;12.30;99.90
23305;DHT22;11821;51.456;8.844;2023-04-25T16:12:24;11.70;99.90
23305;DHT22;11821;51.456;8.844;2023-04-25T16:14:51;11.80;99.90
23305;DHT22;11821;51.456;8.844;2023-04-25T16:17:17;11.90;99.90
23305;DHT22;11821;51.456;8.844;2023-04-25T16:19:43;11.80;99.90
23305;DHT22;11821;51.456;8.844;2023-04-25T16:22:10;11.80;99.90
